Time;durP1;ratioP1;P1;durP2;ratioP2;P2;SDS_P1;SDS_P2;PMS_P1;PMS_P2;Temp;Humidity;BMP_temperature;BMP_pressure;BME280_temperature;BME280_humidity;BME280_pressure;Samples;Min_cycle;Max_cycle;Signal;HPM_P1;HPM_P2
2023/04/08 00:00:37;;;;;;;;;;;;;;;10.27;82.77;97929.34;5088474;28;19924;-74
2023/04/08 00:03:05;;;;;;;;;;;;;;;10.32;82.72;97941.94;5106442;28;19924;-74
2023/04/08 00:05:32;;;;;;;;;;;;;;;10.36;81.31;97935.03;5106514;28;19924;-75
2023/04/08 00:07:58;;;;;;;;;;;;;;;10.36;81.70;97929.69;5103683;28;19920;-74
2023/04/08 00:10:25;;;;;;;;;;;;;;;10.26;80.66;97932.28;5103319;28;19924;-76
2023/04/08 00:12:51;;;;;;;;;;;;;;;10.27;81.88;97936.59;5105421;28;19991;-76
2023/04/08 00:15:18;;;;;;;;;;;;;;;10.29;82.12;97932.59;5106998;28;19924;-74
2023/04/08 00:17:45;;;;;;;;;;;;;;;10.25;82.13;97933.34;5088436;28;19924;-76
2023/04/08 00:20:12;;;;;;;;;;;;;;;10.25;81.88;97938.69;5103211;28;19947;-74
2023/04/08 00:22:39;;;;;;;;;;;;;;;10.25;81.30;97939.50;5103393;28;19959;-75
2023/04/08 00:25:08;;;;;;;;;;;;;;;10.19;81.19;97939.72;5088487;28;19931;-73
2023/04/08 00:27:34;;;;;;;;;;;;;;;10.23;81.26;97935.50;5088390;28;19924;-75
2023/04/08 00:30:01;;;;;;;;;;;;;;;10.19;80.99;97937.88;5109202;28;19935;-77
2023/04/08 00:32:28;;;;;;;;;;;;;;;10.28;79.50;97936.31;5097934;28;19960;-76
2023/04/08 00:34:54;;;;;;;;;;;;;;;10.32;79.19;97936.59;5094401;28;19924;-76
2023/04/08 00:37:23;;;;;;;;;;;;;;;10.32;78.70;97944.59;5105901;28;19924;-75
2023/04/08 00:39:50;;;;;;;;;;;;;;;10.29;78.03;97948.59;5104200;28;19924;-74
2023/04/08 00:42:17;;;;;;;;;;;;;;;10.28;78.32;97951.50;5102464;28;19939;-74
2023/04/08 00:44:43;;;;;;;;;;;;;;;10.19;77.71;97947.72;5106564;28;19925;-73
2023/04/08 00:47:11;;;;;;;;;;;;;;;10.17;77.90;97953.34;5109539;28;19946;-76
2023/04/08 00:49:38;;;;;;;;;;;;;;;10.16;77.96;97956.25;5091184;28;19924;-75
2023/04/08 00:52:04;;;;;;;;;;;;;;;10.18;78.38;97956.81;5105955;28;19925;-71
2023/04/08 00:54:32;;;;;;;;;;;;;;;10.06;77.30;97956.16;5105861;28;19927;-75
2023/04/08 00:57:00;;;;;;;;;;;;;;;9.89;78.83;97956.34;5091203;28;19931;-75
2023/04/08 00:59:26;;;;;;;;;;;;;;;10.01;80.63;97953.47;5109313;28;19924;-75
2023/04/08 01:01:56;;;;;;;;;;;;;;;10.06;80.03;97956.16;5097036;28;19924;-74
2023/04/08 01:04:28;;;;;;;;;;;;;;;10.16;79.56;97965.06;5105856;28;19931;-76
2023/04/08 01:06:56;;;;;;;;;;;;;;;10.21;77.82;97958.97;5108094;28;19998;-74
2023/04/08 01:09:23;;;;;;;;;;;;;;;10.22;77.36;97956.03;5108886;28;19931;-74
2023/04/08 01:11:52;;;;;;;;;;;;;;;10.25;77.03;97950.16;5107147;28;19924;-72
2023/04/08 01:14:20;;;;;;;;;;;;;;;10.10;77.90;97957.25;5105932;28;19944;-72
2023/04/08 01:16:47;;;;;;;;;;;;;;;9.95;78.30;97952.66;5107189;28;19929;-75
2023/04/08 01:19:22;;;;;;;;;;;;;;;9.85;79.48;97957.91;5093374;28;20313;-70
2023/04/08 01:21:49;;;;;;;;;;;;;;;9.95;80.52;97949.97;5106919;28;19925;-73
2023/04/08 01:24:18;;;;;;;;;;;;;;;10.08;79.60;97954.06;5105211;28;19925;-73
2023/04/08 01:26:46;;;;;;;;;;;;;;;10.19;77.96;97953.88;5105931;28;19940;-72
2023/04/08 01:29:14;;;;;;;;;;;;;;;10.21;76.46;97948.28;5090704;28;19920;-75
2023/04/08 01:31:41;;;;;;;;;;;;;;;10.22;77.08;97952.56;5124407;28;19931;-68
2023/04/08 01:34:07;;;;;;;;;;;;;;;10.23;76.90;97954.97;5104930;28;19935;-72
2023/04/08 01:36:35;;;;;;;;;;;;;;;10.27;75.99;97945.38;5105549;28;19924;-72
2023/04/08 01:39:04;;;;;;;;;;;;;;;10.30;76.24;97947.50;5112693;28;19920;-72
2023/04/08 01:41:31;;;;;;;;;;;;;;;10.32;75.29;97943.78;5110781;28;19924;-73
2023/04/08 01:43:59;;;;;;;;;;;;;;;10.33;75.19;97948.88;5106262;28;19947;-73
2023/04/08 01:46:26;;;;;;;;;;;;;;;10.32;74.70;97944.59;5087462;28;19921;-73
2023/04/08 01:48:54;;;;;;;;;;;;;;;10.20;73.79;97952.81;5107336;28;19932;-74
2023/04/08 01:51:22;;;;;;;;;;;;;;;10.28;74.51;97955.00;5108775;28;20353;-74
2023/04/08 01:53:48;;;;;;;;;;;;;;;10.28;73.93;97944.31;5107034;28;19932;-73
2023/04/08 01:56:15;;;;;;;;;;;;;;;10.28;73.52;97946.19;5105167;28;19932;-75
2023/04/08 01:58:42;;;;;;;;;;;;;;;10.20;73.96;97952.00;5087662;28;19932;-74
2023/04/08 02:01:13;;;;;;;;;;;;;;;10.19;73.87;97939.72;5098460;28;19924;-75
2023/04/08 02:03:42;;;;;;;;;;;;;;;10.19;73.70;97945.88;5108221;28;19931;-74
2023/04/08 02:06:09;;;;;;;;;;;;;;;10.07;71.83;97952.44;5104679;28;19920;-74
2023/04/08 02:08:35;;;;;;;;;;;;;;;9.97;74.36;97952.38;5104518;28;20247;-74
2023/04/08 02:11:02;;;;;;;;;;;;;;;10.02;75.38;97955.09;5090112;28;19924;-75
2023/04/08 02:13:29;;;;;;;;;;;;;;;10.07;74.48;97957.78;5107728;28;19924;-74
2023/04/08 02:15:57;;;;;;;;;;;;;;;9.91;74.44;97953.41;5105060;28;20210;-74
2023/04/08 02:18:26;;;;;;;;;;;;;;;9.80;75.85;97952.56;5104016;28;19931;-73
2023/04/08 02:20:57;;;;;;;;;;;;;;;9.90;76.80;97954.50;5088453;28;19924;-75
2023/04/08 02:23:24;;;;;;;;;;;;;;;10.00;75.74;97952.66;5107548;28;19931;-74
2023/04/08 02:25:53;;;;;;;;;;;;;;;10.08;74.10;97956.72;5105556;28;19924;-74
2023/04/08 02:28:19;;;;;;;;;;;;;;;10.10;73.90;97955.41;5086215;28;19924;-72
2023/04/08 02:30:48;;;;;;;;;;;;;;;10.01;74.18;97951.63;5121686;28;19919;-73
2023/04/08 02:33:16;;;;;;;;;;;;;;;10.07;74.56;97953.25;5107278;28;19925;-73
2023/04/08 02:35:44;;;;;;;;;;;;;;;10.09;73.63;97950.31;5088363;28;19931;-74
2023/04/08 02:38:11;;;;;;;;;;;;;;;10.09;73.46;97952.97;5103636;28;19931;-73
2023/04/08 02:40:37;;;;;;;;;;;;;;;9.92;72.14;97957.69;5086099;28;19924;-74
2023/04/08 02:43:04;;;;;;;;;;;;;;;9.89;74.76;97955.53;5089508;28;19924;-74
2023/04/08 02:45:31;;;;;;;;;;;;;;;9.77;74.85;97953.88;5107121;28;19924;-73
2023/04/08 02:47:57;;;;;;;;;;;;;;;9.65;77.45;97958.59;5104230;28;20029;-73
2023/04/08 02:50:24;;;;;;;;;;;;;;;9.64;78.09;97961.50;5103727;28;19924;-74
2023/04/08 02:52:51;;;;;;;;;;;;;;;9.41;79.25;97954.63;5105428;28;19981;-74
2023/04/08 02:55:18;;;;;;;;;;;;;;;9.05;80.16;97961.53;5089269;28;19946;-75
2023/04/08 02:57:44;;;;;;;;;;;;;;;9.07;82.50;97962.06;5088178;28;19931;-74
2023/04/08 03:00:11;;;;;;;;;;;;;;;9.15;83.22;97960.81;5094871;28;19941;-73
2023/04/08 03:02:38;;;;;;;;;;;;;;;9.21;81.97;97965.13;5092301;28;19924;-75
2023/04/08 03:05:05;;;;;;;;;;;;;;;9.31;81.66;97956.44;5106869;28;19932;-73
2023/04/08 03:07:31;;;;;;;;;;;;;;;9.32;82.66;97955.34;5088492;28;19924;-74
2023/04/08 03:09:59;;;;;;;;;;;;;;;9.31;82.51;97956.44;5103971;28;19935;-74
2023/04/08 03:12:26;;;;;;;;;;;;;;;9.43;81.56;97951.75;5085616;28;19924;-73
2023/04/08 03:14:53;;;;;;;;;;;;;;;9.55;80.92;97961.16;5087600;28;19925;-74
2023/04/08 03:17:20;;;;;;;;;;;;;;;9.46;80.59;97967.22;5106674;28;19931;-73
2023/04/08 03:19:46;;;;;;;;;;;;;;;9.39;81.43;97962.09;5087636;28;20421;-73
2023/04/08 03:22:12;;;;;;;;;;;;;;;9.26;81.14;97957.19;5085347;28;19932;-74
2023/04/08 03:24:39;;;;;;;;;;;;;;;9.27;82.85;97958.78;5103337;28;19924;-75
2023/04/08 03:27:07;;;;;;;;;;;;;;;9.33;82.66;97960.44;5088949;28;19931;-74
2023/04/08 03:29:33;;;;;;;;;;;;;;;9.05;83.36;97960.72;5088944;28;19920;-73
2023/04/08 03:32:00;;;;;;;;;;;;;;;9.11;85.21;97967.69;5101969;28;19925;-72
2023/04/08 03:34:26;;;;;;;;;;;;;;;9.25;84.37;97960.13;5085292;28;19920;-74
2023/04/08 03:36:52;;;;;;;;;;;;;;;9.05;84.05;97968.72;5105497;28;19924;-74
2023/04/08 03:39:19;;;;;;;;;;;;;;;8.84;85.04;97965.03;5106842;28;19924;-73
2023/04/08 03:41:46;;;;;;;;;;;;;;;9.05;86.49;97980.16;5105604;28;19920;-76
2023/04/08 03:44:13;;;;;;;;;;;;;;;9.01;86.34;97968.41;5103299;28;19925;-75
2023/04/08 03:46:39;;;;;;;;;;;;;;;8.86;86.58;97967.44;5103128;28;19924;-74
2023/04/08 03:49:06;;;;;;;;;;;;;;;9.04;85.80;97972.41;5088399;28;19943;-75
2023/04/08 03:51:32;;;;;;;;;;;;;;;9.03;84.80;97974.31;5106310;28;19928;-75
2023/04/08 03:53:59;;;;;;;;;;;;;;;9.21;84.17;97965.94;5103328;28;19925;-73
2023/04/08 03:56:25;;;;;;;;;;;;;;;9.21;83.09;97970.47;5102940;28;19931;-75
2023/04/08 03:58:51;;;;;;;;;;;;;;;8.90;84.56;97979.22;5104695;28;20010;-74
2023/04/08 04:01:20;;;;;;;;;;;;;;;9.24;83.42;97977.97;5115349;28;19928;-73
2023/04/08 04:03:46;;;;;;;;;;;;;;;9.33;83.15;97972.97;5105111;28;19950;-74
2023/04/08 04:06:12;;;;;;;;;;;;;;;9.37;82.17;97990.06;5084921;28;19935;-74
2023/04/08 04:08:38;;;;;;;;;;;;;;;9.40;81.76;97979.72;5085191;28;19932;-74
2023/04/08 04:11:05;;;;;;;;;;;;;;;9.36;82.55;97983.94;5105991;28;19931;-73
2023/04/08 04:13:31;;;;;;;;;;;;;;;9.44;82.44;97990.66;5106058;28;19924;-72
2023/04/08 04:15:58;;;;;;;;;;;;;;;9.27;83.00;97996.09;5085233;28;19966;-74
2023/04/08 04:18:25;;;;;;;;;;;;;;;8.89;85.86;97994.38;5085564;28;19924;-74
2023/04/08 04:20:52;;;;;;;;;;;;;;;8.18;91.47;97994.50;5108478;28;19925;-74
2023/04/08 04:23:18;;;;;;;;;;;;;;;8.22;94.15;97987.66;5091886;28;19935;-75
2023/04/08 04:25:44;;;;;;;;;;;;;;;8.20;96.10;97987.91;5108721;28;19924;-73
2023/04/08 04:28:11;;;;;;;;;;;;;;;8.44;95.35;98007.16;5088536;28;20629;-74
2023/04/08 04:30:37;;;;;;;;;;;;;;;8.63;93.36;97993.28;5122678;28;19924;-74
2023/04/08 04:33:03;;;;;;;;;;;;;;;8.47;93.59;97996.81;5097747;28;19920;-74
2023/04/08 04:35:31;;;;;;;;;;;;;;;8.45;94.23;97988.25;5080065;28;19931;-73
2023/04/08 04:37:57;;;;;;;;;;;;;;;8.60;93.02;97998.31;5079997;28;19941;-75
2023/04/08 04:40:24;;;;;;;;;;;;;;;8.91;91.23;98002.13;5097795;28;19925;-74
2023/04/08 04:42:50;;;;;;;;;;;;;;;8.80;91.11;98003.06;5087961;28;19932;-73
2023/04/08 04:45:17;;;;;;;;;;;;;;;8.94;90.52;98014.94;5079740;28;19925;-73
2023/04/08 04:47:43;;;;;;;;;;;;;;;8.81;91.18;98007.34;5088063;28;19927;-74
2023/04/08 04:50:09;;;;;;;;;;;;;;;8.80;91.64;98005.72;5088072;28;19925;-73
2023/04/08 04:52:37;;;;;;;;;;;;;;;8.65;92.33;98009.00;5088068;28;19925;-73
2023/04/08 04:55:04;;;;;;;;;;;;;;;8.63;93.19;98011.91;5088046;28;19921;-74
2023/04/08 04:57:30;;;;;;;;;;;;;;;8.74;92.00;98007.53;5087998;28;19932;-73
2023/04/08 04:59:57;;;;;;;;;;;;;;;8.36;94.10;98018.19;5090660;28;19933;-73
2023/04/08 05:02:23;;;;;;;;;;;;;;;8.33;95.89;98016.84;5093388;28;19924;-76
2023/04/08 05:04:52;;;;;;;;;;;;;;;8.29;96.59;98021.06;5089504;28;19931;-74
2023/04/08 05:07:18;;;;;;;;;;;;;;;8.28;96.96;98018.63;5109200;28;19920;-73
2023/04/08 05:09:46;;;;;;;;;;;;;;;8.32;97.10;98025.91;5090365;28;19920;-74
2023/04/08 05:12:12;;;;;;;;;;;;;;;8.36;97.19;98028.84;5105623;28;19931;-73
2023/04/08 05:14:40;;;;;;;;;;;;;;;8.60;94.18;98030.25;5088304;28;19928;-73
2023/04/08 05:17:06;;;;;;;;;;;;;;;8.46;94.92;98026.31;5109392;28;19920;-73
2023/04/08 05:19:32;;;;;;;;;;;;;;;8.23;96.29;98027.34;5091335;28;19924;-73
2023/04/08 05:21:59;;;;;;;;;;;;;;;8.07;98.30;98030.81;5106276;28;19939;-74
2023/04/08 05:24:25;;;;;;;;;;;;;;;7.96;99.42;98031.69;5087905;28;19925;-74
2023/04/08 05:26:53;;;;;;;;;;;;;;;8.35;97.48;98036.06;5107475;28;19920;-73
2023/04/08 05:29:20;;;;;;;;;;;;;;;8.47;96.11;98035.94;5108744;28;19928;-74
2023/04/08 05:31:49;;;;;;;;;;;;;;;8.39;96.58;98045.13;5124369;28;19920;-74
2023/04/08 05:34:21;;;;;;;;;;;;;;;8.10;98.55;98048.94;5105467;28;19924;-72
2023/04/08 05:36:50;;;;;;;;;;;;;;;7.76;100.00;98061.44;5089332;28;19931;-74
2023/04/08 05:39:17;;;;;;;;;;;;;;;7.64;100.00;98060.72;5109273;28;19919;-72
2023/04/08 05:41:43;;;;;;;;;;;;;;;7.78;100.00;98072.63;5090227;28;19924;-75
2023/04/08 05:44:11;;;;;;;;;;;;;;;7.63;100.00;98067.06;5105426;28;19920;-73
2023/04/08 05:46:37;;;;;;;;;;;;;;;7.43;100.00;98070.16;5087421;28;19932;-73
2023/04/08 05:49:03;;;;;;;;;;;;;;;7.80;100.00;98075.84;5096695;28;19920;-73
2023/04/08 05:51:30;;;;;;;;;;;;;;;7.57;100.00;98089.28;5078836;28;19924;-74
2023/04/08 05:53:56;;;;;;;;;;;;;;;7.88;100.00;98083.44;5096280;28;19931;-72
2023/04/08 05:56:22;;;;;;;;;;;;;;;7.72;100.00;98084.22;5086711;28;19925;-72
2023/04/08 05:58:49;;;;;;;;;;;;;;;7.66;100.00;98087.03;5086612;28;20015;-74
2023/04/08 06:01:16;;;;;;;;;;;;;;;7.33;100.00;98096.56;5088469;28;19925;-71
2023/04/08 06:03:43;;;;;;;;;;;;;;;7.34;100.00;98095.50;5087254;28;19920;-73
2023/04/08 06:06:10;;;;;;;;;;;;;;;7.12;100.00;98099.84;5108200;28;19958;-72
2023/04/08 06:08:36;;;;;;;;;;;;;;;6.69;100.00;98107.47;5107738;28;19919;-73
2023/04/08 06:11:04;;;;;;;;;;;;;;;6.80;100.00;98109.31;5086682;28;19934;-74
2023/04/08 06:13:30;;;;;;;;;;;;;;;6.59;100.00;98113.38;5086687;28;20265;-73
2023/04/08 06:15:57;;;;;;;;;;;;;;;6.47;100.00;98117.88;5107145;28;19920;-74
2023/04/08 06:18:24;;;;;;;;;;;;;;;6.44;100.00;98127.09;5107779;28;19932;-73
2023/04/08 06:20:51;;;;;;;;;;;;;;;6.22;100.00;98127.91;5087909;28;19953;-72
2023/04/08 06:23:17;;;;;;;;;;;;;;;6.20;100.00;98133.44;5104153;28;19924;-73
2023/04/08 06:25:43;;;;;;;;;;;;;;;6.28;100.00;98135.75;5087101;28;19931;-72
2023/04/08 06:28:10;;;;;;;;;;;;;;;6.37;100.00;98146.84;5089687;28;19931;-73
2023/04/08 06:30:36;;;;;;;;;;;;;;;6.09;100.00;98147.50;5107505;28;19924;-71
2023/04/08 06:33:02;;;;;;;;;;;;;;;6.72;100.00;98138.84;5089719;28;19935;-71
2023/04/08 06:35:30;;;;;;;;;;;;;;;7.40;100.00;98136.25;5107471;28;19950;-71
2023/04/08 06:37:56;;;;;;;;;;;;;;;7.61;100.00;98136.41;5104660;28;19991;-71
2023/04/08 06:40:23;;;;;;;;;;;;;;;7.37;100.00;98137.53;5085627;28;19924;-72
2023/04/08 06:42:49;;;;;;;;;;;;;;;7.28;100.00;98136.31;5087122;28;19939;-73
2023/04/08 06:45:15;;;;;;;;;;;;;;;7.59;100.00;98149.13;5089160;28;20584;-73
2023/04/08 06:47:42;;;;;;;;;;;;;;;7.89;100.00;98145.41;5106486;28;19924;-73
2023/04/08 06:50:09;;;;;;;;;;;;;;;7.15;100.00;98155.16;5103733;28;19929;-72
2023/04/08 06:52:36;;;;;;;;;;;;;;;7.22;100.00;98152.38;5103559;28;19924;-72
2023/04/08 06:55:03;;;;;;;;;;;;;;;6.99;100.00;98151.38;5095215;28;19924;-73
2023/04/08 06:57:29;;;;;;;;;;;;;;;7.15;100.00;98162.34;5077192;28;19931;-72
2023/04/08 06:59:56;;;;;;;;;;;;;;;7.78;100.00;98140.94;5097280;28;20538;-72
2023/04/08 07:02:23;;;;;;;;;;;;;;;7.61;100.00;98149.69;5091344;28;19962;-73
2023/04/08 07:04:49;;;;;;;;;;;;;;;7.88;100.00;98146.44;5086877;28;19928;-73
2023/04/08 07:07:15;;;;;;;;;;;;;;;7.93;100.00;98151.84;5106680;28;19924;-70
2023/04/08 07:09:44;;;;;;;;;;;;;;;8.12;100.00;98150.59;5088332;28;19931;-72
2023/04/08 07:12:11;;;;;;;;;;;;;;;8.31;100.00;98159.97;5103408;28;19920;-73
2023/04/08 07:14:37;;;;;;;;;;;;;;;8.15;100.00;98155.41;5085421;28;19924;-72
2023/04/08 07:17:03;;;;;;;;;;;;;;;8.34;100.00;98156.03;5094873;28;19921;-71
2023/04/08 07:19:31;;;;;;;;;;;;;;;8.29;100.00;98162.09;5076980;28;19925;-72
2023/04/08 07:21:57;;;;;;;;;;;;;;;8.19;100.00;98161.06;5085636;28;19935;-73
2023/04/08 07:24:23;;;;;;;;;;;;;;;8.44;100.00;98166.84;5095169;28;19924;-71
2023/04/08 07:26:51;;;;;;;;;;;;;;;8.19;100.00;98161.88;5094725;28;19932;-73
2023/04/08 07:29:17;;;;;;;;;;;;;;;8.36;100.00;98162.72;5093886;28;19924;-73
2023/04/08 07:31:44;;;;;;;;;;;;;;;8.25;100.00;98171.56;5111584;28;19924;-73
2023/04/08 07:34:10;;;;;;;;;;;;;;;7.85;100.00;98170.88;5085298;28;19924;-72
2023/04/08 07:36:37;;;;;;;;;;;;;;;7.77;100.00;98171.25;5103081;28;19921;-71
2023/04/08 07:39:03;;;;;;;;;;;;;;;7.08;100.00;98181.06;5085056;28;19936;-73
2023/04/08 07:41:30;;;;;;;;;;;;;;;7.15;100.00;98179.06;5085172;28;19932;-73
2023/04/08 07:43:57;;;;;;;;;;;;;;;7.57;100.00;98177.81;5087984;28;19946;-74
2023/04/08 07:46:24;;;;;;;;;;;;;;;7.44;100.00;98180.72;5106506;28;19943;-74
2023/04/08 07:48:50;;;;;;;;;;;;;;;7.64;100.00;98176.84;5104573;28;19924;-71
2023/04/08 07:51:17;;;;;;;;;;;;;;;7.91;100.00;98170.72;5102927;28;19924;-73
2023/04/08 07:53:43;;;;;;;;;;;;;;;7.75;100.00;98176.81;5089243;28;19954;-73
2023/04/08 07:56:13;;;;;;;;;;;;;;;7.82;100.00;98181.97;5110629;28;19946;-71
2023/04/08 07:58:40;;;;;;;;;;;;;;;7.23;100.00;98194.66;5092302;28;19935;-73
2023/04/08 08:01:15;;;;;;;;;;;;;;;7.02;100.00;98184.66;5111267;28;19924;-72
2023/04/08 08:03:41;;;;;;;;;;;;;;;7.27;100.00;98192.34;5110385;28;20612;-72
2023/04/08 08:06:08;;;;;;;;;;;;;;;7.56;100.00;98189.47;5106935;28;19929;-72
2023/04/08 08:08:35;;;;;;;;;;;;;;;7.75;100.00;98190.09;5088976;28;19925;-73
2023/04/08 08:11:01;;;;;;;;;;;;;;;7.50;100.00;98181.63;5092103;28;19924;-72
2023/04/08 08:13:28;;;;;;;;;;;;;;;7.65;100.00;98197.06;5110337;28;19924;-72
2023/04/08 08:15:54;;;;;;;;;;;;;;;8.04;100.00;98198.88;5108178;28;19920;-73
2023/04/08 08:18:22;;;;;;;;;;;;;;;7.93;100.00;98202.38;5106515;28;19931;-73
2023/04/08 08:20:48;;;;;;;;;;;;;;;7.74;100.00;98200.94;5090091;28;19960;-73
2023/04/08 08:23:15;;;;;;;;;;;;;;;7.85;100.00;98200.13;5109908;28;19924;-72
2023/04/08 08:25:41;;;;;;;;;;;;;;;7.40;100.00;98208.81;5091560;28;20081;-71
2023/04/08 08:28:07;;;;;;;;;;;;;;;7.04;100.00;98209.94;5106344;28;19940;-74
2023/04/08 08:30:34;;;;;;;;;;;;;;;7.00;100.00;98211.44;5096385;28;19920;-71
2023/04/08 08:33:00;;;;;;;;;;;;;;;6.95;100.00;98216.63;5110008;28;19924;-72
2023/04/08 08:35:28;;;;;;;;;;;;;;;7.05;100.00;98210.75;5109813;28;19924;-71
2023/04/08 08:37:54;;;;;;;;;;;;;;;7.14;100.00;98205.88;5107441;28;19931;-74
2023/04/08 08:40:20;;;;;;;;;;;;;;;6.89;100.00;98219.41;5106283;28;19925;-74
2023/04/08 08:42:50;;;;;;;;;;;;;;;7.14;100.00;98216.50;5107404;28;20314;-72
2023/04/08 08:45:16;;;;;;;;;;;;;;;7.12;100.00;98216.72;5109712;28;19931;-73
2023/04/08 08:47:43;;;;;;;;;;;;;;;7.46;100.00;98223.81;5090934;28;19924;-71
2023/04/08 08:50:09;;;;;;;;;;;;;;;7.69;100.00;98217.63;5088092;28;19924;-73
2023/04/08 08:52:37;;;;;;;;;;;;;;;7.83;100.00;98218.94;5087997;28;19925;-73
2023/04/08 08:55:04;;;;;;;;;;;;;;;8.17;100.00;98217.16;5097396;28;19928;-73
2023/04/08 08:57:30;;;;;;;;;;;;;;;8.11;100.00;98218.13;5097266;28;19929;-73
2023/04/08 08:59:56;;;;;;;;;;;;;;;8.32;100.00;98228.13;5100029;28;19920;-72
2023/04/08 09:02:23;;;;;;;;;;;;;;;8.05;100.00;98219.09;5111531;28;19924;-71
2023/04/08 09:04:56;;;;;;;;;;;;;;;7.95;100.00;98221.59;5088755;28;20342;-74
2023/04/08 09:07:24;;;;;;;;;;;;;;;8.21;100.00;98231.59;5109398;28;19924;-72
2023/04/08 09:09:52;;;;;;;;;;;;;;;8.27;100.00;98232.50;5107555;28;19924;-73
2023/04/08 09:12:19;;;;;;;;;;;;;;;8.07;100.00;98232.97;5105626;28;19924;-73
2023/04/08 09:14:47;;;;;;;;;;;;;;;7.90;100.00;98226.78;5106648;28;19932;-70
2023/04/08 09:17:13;;;;;;;;;;;;;;;7.98;100.00;98234.41;5091452;28;19924;-70
2023/04/08 09:19:40;;;;;;;;;;;;;;;8.27;100.00;98235.97;5108623;28;19924;-71
2023/04/08 09:22:06;;;;;;;;;;;;;;;8.23;100.00;98232.19;5087935;28;19927;-73
2023/04/08 09:24:34;;;;;;;;;;;;;;;8.27;100.00;98235.97;5106268;28;20014;-73
2023/04/08 09:27:01;;;;;;;;;;;;;;;8.05;100.00;98243.84;5093358;28;19928;-72
2023/04/08 09:29:28;;;;;;;;;;;;;;;8.29;100.00;98239.25;5111476;28;19924;-71
2023/04/08 09:31:55;;;;;;;;;;;;;;;8.34;100.00;98239.31;5111241;28;19925;-73
2023/04/08 09:34:22;;;;;;;;;;;;;;;8.45;100.00;98240.28;5093034;28;19920;-72
2023/04/08 09:36:48;;;;;;;;;;;;;;;8.56;100.00;98239.41;5106948;28;19946;-72
2023/04/08 09:39:15;;;;;;;;;;;;;;;8.68;100.00;98242.81;5105295;28;19924;-72
2023/04/08 09:41:42;;;;;;;;;;;;;;;8.50;100.00;98241.19;5105419;28;19921;-72
2023/04/08 09:44:10;;;;;;;;;;;;;;;8.30;100.00;98242.69;5108547;28;19928;-73
2023/04/08 09:46:40;;;;;;;;;;;;;;;8.18;100.00;98240.06;5090357;28;19935;-72
2023/04/08 09:49:08;;;;;;;;;;;;;;;8.22;100.00;98243.88;5095422;28;19931;-72
2023/04/08 09:51:40;;;;;;;;;;;;;;;8.18;100.00;98242.72;5096245;28;19924;-72
2023/04/08 09:54:12;;;;;;;;;;;;;;;7.84;100.00;98243.69;5100211;28;19949;-70
2023/04/08 09:56:41;;;;;;;;;;;;;;;7.75;100.00;98250.44;5090295;28;19946;-73
2023/04/08 09:59:13;;;;;;;;;;;;;;;7.49;100.00;98257.06;5104425;28;19928;-73
2023/04/08 10:01:42;;;;;;;;;;;;;;;7.45;100.00;98250.63;5104779;28;19924;-72
2023/04/08 10:04:12;;;;;;;;;;;;;;;7.35;100.00;98253.06;5107936;28;19924;-73
2023/04/08 10:06:39;;;;;;;;;;;;;;;7.20;100.00;98258.88;5107982;28;19945;-72
2023/04/08 10:09:06;;;;;;;;;;;;;;;7.53;100.00;98255.56;5104460;28;20038;-71
2023/04/08 10:11:33;;;;;;;;;;;;;;;7.76;100.00;98247.53;5086387;28;19924;-74
2023/04/08 10:13:59;;;;;;;;;;;;;;;7.89;100.00;98246.47;5107183;28;19935;-73
2023/04/08 10:16:28;;;;;;;;;;;;;;;7.89;100.00;98254.44;5107647;28;19997;-73
2023/04/08 10:18:55;;;;;;;;;;;;;;;7.69;100.00;98252.19;5087403;28;19924;-74
2023/04/08 10:21:32;;;;;;;;;;;;;;;7.41;100.00;98255.59;5086447;28;19924;-72
2023/04/08 10:24:00;;;;;;;;;;;;;;;7.16;100.00;98256.91;5088817;28;20400;-72
2023/04/08 10:26:33;;;;;;;;;;;;;;;7.43;100.00;98256.16;5107383;28;19926;-71
2023/04/08 10:29:15;;;;;;;;;;;;;;;7.45;100.00;98262.06;5104197;28;19948;-72
2023/04/08 10:31:42;;;;;;;;;;;;;;;7.50;100.00;98266.66;5103258;28;19935;-73
2023/04/08 10:34:16;;;;;;;;;;;;;;;7.59;100.00;98266.06;5089390;28;19936;-72
2023/04/08 10:36:42;;;;;;;;;;;;;;;7.58;100.00;98267.09;5088800;28;20446;-72
2023/04/08 10:39:08;;;;;;;;;;;;;;;7.68;100.00;98271.81;5085985;28;19944;-71
2023/04/08 10:41:35;;;;;;;;;;;;;;;7.90;100.00;98264.00;5085819;28;19925;-72
2023/04/08 10:44:03;;;;;;;;;;;;;;;8.04;100.00;98263.50;5106713;28;19942;-71
2023/04/08 10:46:37;;;;;;;;;;;;;;;8.05;100.00;98270.44;5107014;28;19924;-71
2023/04/08 10:49:04;;;;;;;;;;;;;;;8.07;100.00;98268.34;5103404;28;19925;-72
2023/04/08 10:51:31;;;;;;;;;;;;;;;8.06;100.00;98263.25;5103602;28;19928;-72
2023/04/08 10:54:05;;;;;;;;;;;;;;;7.98;100.00;98263.66;5106342;28;19925;-71
2023/04/08 10:56:32;;;;;;;;;;;;;;;7.94;100.00;98262.50;5089114;28;19928;-71
2023/04/08 10:58:58;;;;;;;;;;;;;;;8.17;100.00;98264.25;5104065;28;19924;-70
2023/04/08 11:01:25;;;;;;;;;;;;;;;8.33;100.00;98263.50;5103409;28;20488;-71
2023/04/08 11:03:52;;;;;;;;;;;;;;;8.03;100.00;98261.06;5105307;28;19924;-73
2023/04/08 11:06:20;;;;;;;;;;;;;;;8.00;100.00;98265.03;5089223;28;19946;-71
2023/04/08 11:08:46;;;;;;;;;;;;;;;8.09;100.00;98265.44;5087828;28;19924;-74
2023/04/08 11:11:15;;;;;;;;;;;;;;;7.98;100.00;98256.47;5085459;28;19925;-74
2023/04/08 11:13:42;;;;;;;;;;;;;;;7.96;100.00;98255.91;5103646;28;20375;-73
2023/04/08 11:16:08;;;;;;;;;;;;;;;7.99;100.00;98268.72;5088870;28;19924;-69
2023/04/08 11:18:35;;;;;;;;;;;;;;;8.13;100.00;98253.28;5106496;28;19931;-64
2023/04/08 11:21:01;;;;;;;;;;;;;;;8.35;100.00;98258.75;5103362;28;19929;-72
2023/04/08 11:23:29;;;;;;;;;;;;;;;8.44;100.00;98258.13;5085336;28;19925;-72
2023/04/08 11:25:56;;;;;;;;;;;;;;;8.37;100.00;98265.47;5105624;28;19925;-74
2023/04/08 11:28:22;;;;;;;;;;;;;;;8.33;100.00;98261.66;5098999;28;19932;-71
2023/04/08 11:30:49;;;;;;;;;;;;;;;8.10;100.00;98264.41;5111446;28;19931;-74
2023/04/08 11:33:15;;;;;;;;;;;;;;;8.09;100.00;98265.44;5103336;28;20001;-71
2023/04/08 11:35:42;;;;;;;;;;;;;;;8.05;100.00;98262.44;5104112;28;19931;-73
2023/04/08 11:38:09;;;;;;;;;;;;;;;8.06;100.00;98260.59;5109456;28;19915;-71
2023/04/08 11:40:36;;;;;;;;;;;;;;;7.85;100.00;98274.56;5092298;28;19969;-71
2023/04/08 11:43:09;;;;;;;;;;;;;;;8.04;100.00;98262.69;5103786;28;20590;-72
2023/04/08 11:45:38;;;;;;;;;;;;;;;8.06;100.00;98266.72;5084192;28;19924;-72
2023/04/08 11:48:08;;;;;;;;;;;;;;;8.02;100.00;98257.59;5094589;28;19935;-74
2023/04/08 11:50:34;;;;;;;;;;;;;;;7.92;100.00;98268.03;5094837;28;19925;-71
2023/04/08 11:53:01;;;;;;;;;;;;;;;7.97;100.00;98268.16;5076998;28;19928;-72
2023/04/08 11:55:28;;;;;;;;;;;;;;;8.07;100.00;98267.53;5094578;28;19928;-72
2023/04/08 11:57:57;;;;;;;;;;;;;;;8.18;100.00;98269.34;5085181;28;19924;-72
2023/04/08 12:00:23;;;;;;;;;;;;;;;8.36;100.00;98265.69;5082992;28;19924;-72
2023/04/08 12:02:51;;;;;;;;;;;;;;;8.41;100.00;98268.44;5087167;28;19931;-72
2023/04/08 12:05:17;;;;;;;;;;;;;;;8.44;100.00;98274.09;5085233;28;19936;-70
2023/04/08 12:07:44;;;;;;;;;;;;;;;8.40;100.00;98272.97;5103655;28;19925;-71
2023/04/08 12:10:11;;;;;;;;;;;;;;;8.32;100.00;98276.03;5106732;28;19924;-71
2023/04/08 12:12:38;;;;;;;;;;;;;;;8.31;100.00;98284.22;5105429;28;19924;-73
2023/04/08 12:15:07;;;;;;;;;;;;;;;8.25;100.00;98280.66;5085180;28;19970;-73
2023/04/08 12:17:33;;;;;;;;;;;;;;;8.36;100.00;98281.66;5084995;28;19924;-72
2023/04/08 12:20:00;;;;;;;;;;;;;;;8.25;100.00;98282.50;5105824;28;19924;-72
2023/04/08 12:22:26;;;;;;;;;;;;;;;8.14;100.00;98289.47;5106302;28;19920;-71
2023/04/08 12:24:53;;;;;;;;;;;;;;;8.25;100.00;98280.66;5087029;28;19935;-74
2023/04/08 12:27:19;;;;;;;;;;;;;;;8.15;100.00;98280.44;5082836;28;19925;-73
2023/04/08 12:29:45;;;;;;;;;;;;;;;8.03;100.00;98285.00;5103504;28;20362;-73
2023/04/08 12:32:13;;;;;;;;;;;;;;;7.99;100.00;98289.19;5087964;28;19924;-68
2023/04/08 12:34:40;;;;;;;;;;;;;;;7.99;100.00;98292.66;5105749;28;19924;-71
2023/04/08 12:37:06;;;;;;;;;;;;;;;8.04;100.00;98281.31;5082687;28;19925;-70
2023/04/08 12:39:32;;;;;;;;;;;;;;;8.08;100.00;98290.41;5107373;28;19943;-70
2023/04/08 12:41:59;;;;;;;;;;;;;;;8.13;100.00;98293.19;5083741;28;19928;-71
2023/04/08 12:44:25;;;;;;;;;;;;;;;8.33;100.00;98288.25;5083976;28;19921;-70
2023/04/08 12:46:51;;;;;;;;;;;;;;;8.36;100.00;98287.78;5104924;28;19928;-69
2023/04/08 12:49:19;;;;;;;;;;;;;;;8.40;100.00;98282.78;5087214;28;19924;-72